Terminal Aerodrome Forecast
Issued by NWS

Home | Current Version | Previous Version | Text Only | Print | Product List | Glossary On
Versions: 1 2 3 4 5 6 7 8 9 10 11 12 13 14
000
FTAK31 PANC 302331
TAFAEN
TAF
PAEN 302331Z 0100/0124 02020G28KT P6SM VCSH SCT050 OVC080
     FM010300 03013G23KT P6SM -SHRA SCT040 OVC070
     FM010700 02008KT P6SM -SHRA SCT040 OVC070=

USA.gov is the U.S. government's official web portal to all federal, state and local government web resources and services.